ADDS METAR Data INFO
IDs: Format: Raw Decoded Include TAF

Data at: 0636 UTC 15 Dec 2017

KXSA 150615Z AUTO 03004KT 10SM CLR 00/M07 A3012 RMK AO2 T00021072
KXSA 150555Z AUTO 03004KT 10SM CLR 00/M07 A3011 RMK AO2 T00021068 10024 21005 400881005
KXSA 150535Z AUTO 03003KT 10SM CLR 00/M06 A3011 RMK AO2 T00001062
KXSA 150515Z AUTO 00000KT 10SM CLR 00/M06 A3011 RMK AO2 T00001062
KXSA 150455Z AUTO 00000KT 10SM CLR 00/M06 A3012 RMK AO2 T10011060
KXSA 150435Z AUTO 00000KT 10SM CLR 00/M06 A3011 RMK AO2 T10041062
KXSA 150415Z AUTO 00000KT 10SM CLR 00/M07 A3012 RMK AO2 T00001067
KXSA 150355Z AUTO 00000KT 10SM CLR 00/M07 A3011 RMK AO2 T00031067
KXSA 150335Z AUTO 00000KT 10SM CLR 01/M07 A3011 RMK AO2 T00061070
KXSA 150315Z AUTO 02003KT 10SM CLR 01/M07 A3010 RMK AO2 T00101070
KXSA 150255Z AUTO 03003KT 10SM CLR 01/M07 A3010 RMK AO2 T00121070
KXSA 150235Z AUTO 03003KT 10SM CLR 01/M07 A3009 RMK AO2 T00141067
KXSA 150215Z AUTO 36003KT 10SM CLR 02/M07 A3009 RMK AO2 T00191067
KXSA 150155Z AUTO 02003KT 10SM CLR 02/M06 A3008 RMK AO2 T00201065
KXSA 150135Z AUTO 03004KT 10SM CLR 02/M06 A3008 RMK AO2 T00201064
KXSA 150115Z AUTO 00000KT 10SM CLR 02/M06 A3007 RMK AO2 T00211063
KXSA 150055Z AUTO 02003KT 10SM CLR 02/M06 A3005 RMK AO2 T00231060
KXSA 150035Z AUTO 02004KT 10SM CLR 02/M06 A3005 RMK AO2 T00221057
KXSA 150015Z AUTO 03003KT 10SM CLR 02/M06 A3004 RMK AO2 T00221057
KXSA 142355Z AUTO 02003KT 10SM CLR 01/M05 A3003 RMK AO2 T00141052 10081 20005
KXSA 142335Z AUTO 01003KT 10SM CLR 01/M05 A3002 RMK AO2 T00101049
KXSA 142315Z AUTO 01003KT 10SM CLR 01/M05 A3002 RMK AO2 T00131054
KXSA 142255Z AUTO 00000KT 10SM CLR 03/M06 A3000 RMK AO2 T00251056
KXSA 142235Z AUTO 35003KT 10SM CLR 02/M06 A3000 RMK AO2 T00231057
KXSA 142215Z AUTO 00000KT 10SM CLR 03/M06 A2998 RMK AO2 T00331058
KXSA 142155Z AUTO 05003KT 10SM CLR 04/M06 A2997 RMK AO2 T00361057
KXSA 142135Z AUTO 05004KT 10SM CLR 04/M05 A2996 RMK AO2 T00381055
KXSA 142115Z AUTO 04003KT 10SM CLR 05/M06 A2995 RMK AO2 T00451057
KXSA 142055Z AUTO 01004KT 10SM CLR 05/M06 A2994 RMK AO2 T00501058
KXSA 142035Z AUTO 02006KT 10SM CLR 05/M06 A2994 RMK AO2 T00521059
KXSA 142015Z AUTO 34008KT 10SM CLR 06/M06 A2992 RMK AO2 T00601056
KXSA 141955Z AUTO 01008KT 330V030 10SM CLR 06/M05 A2991 RMK AO2 T00621052
KXSA 141935Z AUTO 36009G16KT 10SM CLR 06/M05 A2989 RMK AO2 T00641047
KXSA 141915Z AUTO 01010G15KT 10SM CLR 07/M04 A2989 RMK AO2 T00701041
KXSA 141855Z AUTO 01006G14KT 10SM CLR 07/M03 A2988 RMK AO2 T00711035
KXSA 141835Z AUTO 30009G15KT 10SM CLR 08/M05 A2987 RMK AO2 T00771048
KXSA 141815Z AUTO 35009G14KT 10SM CLR 08/M05 A2985 RMK AO2 T00751048
KXSA 141755Z AUTO 32010G16KT 10SM CLR 08/M05 A2984 RMK AO2 T00831046 10088 20034
KXSA 141735Z AUTO 31005KT 10SM CLR 08/M04 A2984 RMK AO2 T00831045
KXSA 141715Z AUTO 30010G14KT 280V340 10SM CLR 09/M05 A2984 RMK AO2 T00861047
KXSA 141655Z AUTO 34008G18KT 10SM CLR 08/M05 A2984 RMK AO2 T00831046
KXSA 141635Z AUTO 30007G14KT 10SM CLR 08/M04 A2985 RMK AO2 T00811042
KXSA 141615Z AUTO 28004KT 10SM SCT075 08/M04 A2984 RMK AO2 T00811037
KXSA 141555Z AUTO 00000KT 10SM BKN075 07/M04 A2983 RMK AO2 T00671043
KXSA 141535Z AUTO 26006KT 10SM OVC075 06/M05 A2982 RMK AO2 T00601046
KXSA 141515Z AUTO 29004KT 10SM OVC075 06/M05 A2981 RMK AO2 T00561047
KXSA 141455Z AUTO 24004KT 10SM OVC075 05/M05 A2979 RMK AO2 T00521049
KXSA 141435Z AUTO 23005KT 10SM BKN075 05/M05 A2977 RMK AO2 T00481051
KXSA 141415Z AUTO 23005KT 10SM SCT085 05/M05 A2975 RMK AO2 T00471050
KXSA 141355Z AUTO 26007KT 10SM SCT085 04/M05 A2974 RMK AO2 T00411054
KXSA 141335Z AUTO 23008KT 10SM SCT085 04/M06 A2972 RMK AO2 T00381057
KXSA 141315Z AUTO 22008KT 10SM BKN085 04/M06 A2969 RMK AO2 T00391058
KXSA 141255Z AUTO 22008KT 10SM OVC085 04/M06 A2967 RMK AO2 T00401060
KXSA 141235Z AUTO 21008G16KT 10SM BKN085 04/M06 A2966 RMK AO2 T00381062
KXSA 141215Z AUTO 20008G14KT 170V230 10SM SCT085 04/M06 A2964 RMK AO2 T00361063
KXSA 141155Z AUTO 20010G15KT 170V230 10SM CLR 03/M06 A2963 RMK AO2 T00341065 10035 20025
KXSA 141135Z AUTO 20010G14KT 10SM CLR 03/M06 A2962 RMK AO2 T00311065
KXSA 141115Z AUTO 20009G16KT 10SM SCT080 03/M06 A2961 RMK AO2 T00301065
KXSA 141055Z AUTO 20009G15KT 10SM SCT080 03/M06 A2961 RMK AO2 T00291065
KXSA 141035Z AUTO 20009KT 10SM CLR 03/M07 A2960 RMK AO2 T00261066
KXSA 141015Z AUTO 19010G15KT 10SM CLR 03/M07 A2960 RMK AO2 T00271067
KXSA 140955Z AUTO 19007KT 10SM CLR 03/M07 A2958 RMK AO2 T00251067
KXSA 140935Z AUTO 20008KT 10SM CLR 03/M07 A2958 RMK AO2 T00261067
KXSA 140915Z AUTO 20006KT 10SM CLR 03/M07 A2958 RMK AO2 T00271069
KXSA 140855Z AUTO 20006KT 10SM CLR 03/M07 A2958 RMK AO2 T00271069
KXSA 140835Z AUTO 19008KT 160V220 10SM CLR 03/M07 A2958 RMK AO2 T00271070
KXSA 140815Z AUTO 20008G14KT 10SM CLR 03/M07 A2958 RMK AO2 T00271071
KXSA 140755Z AUTO 20009G15KT 10SM CLR 03/M07 A2959 RMK AO2 T00301072
KXSA 140735Z AUTO 19009KT 10SM CLR 03/M07 A2960 RMK AO2 T00311073
KXSA 140715Z AUTO 20009G15KT 10SM CLR 03/M07 A2959 RMK AO2 T00341075
KXSA 140655Z AUTO 19006G14KT 10SM CLR 03/M08 A2959 RMK AO2 T00311076
KXSA 140635Z AUTO 19010G15KT 10SM CLR 03/M08 A2959 RMK AO2 T00271077
KXSA 140615Z AUTO 18006KT 10SM CLR 03/M08 A2961 RMK AO2 T00261080
KXSA 140555Z AUTO 18008KT 10SM CLR 03/M08 A2961 RMK AO2 T00251082 10027 20007 400271080
KXSA 140535Z AUTO 18009G14KT 10SM SCT070 03/M08 A2962 RMK AO2 T00251084
KXSA 140515Z AUTO 17007KT 10SM BKN070 BKN090 03/M09 A2963 RMK AO2 T00271086
KXSA 140455Z AUTO 17009KT 10SM SCT090 02/M09 A2965 RMK AO2 T00211088
KXSA 140435Z AUTO 17009KT 10SM SCT100 02/M09 A2966 RMK AO2 T00211090
KXSA 140415Z AUTO 16006KT 10SM SCT100 02/M09 A2966 RMK AO2 T00201093
KXSA 140355Z AUTO 17006KT 10SM CLR 02/M09 A2968 RMK AO2 T00191095
KXSA 140335Z AUTO 17007KT 10SM CLR 02/M10 A2969 RMK AO2 T00201096
KXSA 140315Z AUTO 17007KT 10SM SCT120 02/M10 A2970 RMK AO2 T00201096
KXSA 140255Z AUTO 17007KT 10SM BKN120 02/M10 A2970 RMK AO2 T00201097
KXSA 140235Z AUTO 17005KT 10SM BKN120 02/M10 A2970 RMK AO2 T00201100
KXSA 140215Z AUTO 15007KT 10SM SCT060 SCT070 BKN110 02/M10 A2968 RMK AO2 T00181100
KXSA 140155Z AUTO 15007KT 10SM SCT046 BKN065 BKN075 02/M10 A2972 RMK AO2 T00161100
KXSA 140135Z AUTO 17006KT 10SM BKN075 BKN090 02/M10 A2974 RMK AO2 T00151104
KXSA 140115Z AUTO 18004KT 10SM SCT090 01/M11 A2976 RMK AO2 T00131106
KXSA 140055Z AUTO 18006KT 10SM BKN090 01/M11 A2977 RMK AO2 T00121107
KXSA 140035Z AUTO 20005KT 10SM OVC090 01/M11 A2977 RMK AO2 T00111110
KXSA 140015Z AUTO 17004KT 10SM OVC090 01/M11 A2977 RMK AO2 T00081109
KXSA 132355Z AUTO 18003KT 10SM OVC090 01/M11 A2977 RMK AO2 T00071114 10023 20002
KXSA 132335Z AUTO 15004KT 10SM BKN100 01/M11 A2977 RMK AO2 T00051112
KXSA 132315Z AUTO 17004KT 10SM BKN100 00/M11 A2978 RMK AO2 T00021111
KXSA 132255Z AUTO 00000KT 10SM BKN100 01/M11 A2979 RMK AO2 T00051113
KXSA 132235Z AUTO 17003KT 10SM CLR 01/M12 A2980 RMK AO2 T00051116
KXSA 132215Z AUTO 19005KT 10SM CLR 01/M12 A2981 RMK AO2 T00081117
KXSA 132155Z AUTO 21005KT 10SM CLR 01/M12 A2981 RMK AO2 T00101117
KXSA 132135Z AUTO 18005KT 10SM CLR 01/M12 A2982 RMK AO2 T00121119
KXSA 132115Z AUTO 17005KT 10SM CLR 01/M12 A2982 RMK AO2 T00121124
KXSA 132055Z AUTO 20006KT 10SM CLR 01/M13 A2981 RMK AO2 T00141126
KXSA 132035Z AUTO 20009KT 10SM CLR 02/M13 A2981 RMK AO2 T00151128
KXSA 132015Z AUTO 24008G16KT 10SM CLR 02/M13 A2981 RMK AO2 T00201132
KXSA 131955Z AUTO 21011G19KT 10SM CLR 02/M13 A2982 RMK AO2 T00211130
KXSA 131935Z AUTO 24009G18KT 10SM CLR 02/M13 A2982 RMK AO2 T00181132
KXSA 131915Z AUTO 25009G15KT 10SM CLR 02/M13 A2983 RMK AO2 T00181133
KXSA 131855Z AUTO 25015G19KT 10SM CLR 02/M13 A2983 RMK AO2 T00161128